KSFB/SFB METAR and TAF weather

Enter ICAO airport designator
Station Type Date Time Source
KSFB METAR 2019/06/20 06:53 UTC NOAA

KSFB 200653Z 20006KT 10SM CLR 24/22 A2996 RMK AO2 SLP144 T02390217


Station Type Date Time Source
KSFB Decoded METAR 2019/06/20 06:53 UTC NOAA

ORLANDO SANFORD AIRPORT, FL, United States (KSFB) 28-47N 081-15W
Jun 20, 2019 - 02:53 AM EDT / 2019.06.20 0653 UTC
Wind: from the SSW (200 degrees) at 7 MPH (6 KT):0
Visibility: 10 mile(s):0
Sky conditions: clear
Temperature: 75.0 F (23.9 C)
Dew Point: 71.1 F (21.7 C)
Relative Humidity: 87%
Pressure (altimeter): 29.96 in. Hg (1014 hPa)
ob: KSFB 200653Z 20006KT 10SM CLR 24/22 A2996 RMK AO2 SLP144 T02390217
cycle: 7

Station Type Date Time Source
KSFB TAF 2019/06/20 06:48 UTC NOAA

TAF KSFB 200545Z 2006/2106 20007KT P6SM FEW025 SCT250
FM201400 24012G18KT P6SM SCT040 SCT250
FM210000 25009KT P6SM FEW040 SCT250

Example: see airport list